Terminal Aerodrome Forecast
Issued by NWS Wilmington, OH

Current Version | Previous Version | Graphics & Text | Print | Product List | Glossary On
Versions: 1 2 3 4 5 6 7 8 9 10 11 12 13 14 15 16 17 18 19 20
327
FTUS41 KILN 160335 AAA
TAFCMH
TAF AMD
KCMH 160335Z 1604/1624 27008KT 2SM -SN BR OVC025
     FM160600 28008KT P6SM OVC025
     FM160800 28007KT P6SM OVC015
     FM161400 25007KT P6SM OVC015=

USA.gov is the U.S. government's official web portal to all federal, state and local government web resources and services.